createdAt,value
2023-05-09T00:00:49.079Z,96007.25
2023-05-09T00:05:51.491Z,96005.59
2023-05-09T00:10:53.869Z,96006.09
2023-05-09T00:15:58.418Z,95996.44
2023-05-09T00:21:00.993Z,95993.19
2023-05-09T00:26:03.376Z,95995.06
2023-05-09T00:31:05.773Z,95991.28
2023-05-09T00:36:08.108Z,95986.41
2023-05-09T00:41:10.528Z,95990.66
2023-05-09T00:46:13.210Z,95986.34
2023-05-09T00:51:15.609Z,95982.03
2023-05-09T00:56:17.934Z,95985.25
2023-05-09T01:01:20.524Z,95979.81
2023-05-09T01:06:22.860Z,95970.72
2023-05-09T01:11:25.142Z,95971.00
2023-05-09T01:16:27.659Z,95962.91
2023-05-09T01:21:30.149Z,95954.06
2023-05-09T01:26:32.672Z,95951.31
2023-05-09T01:31:35.262Z,95953.50
2023-05-09T01:36:37.546Z,95943.78
2023-05-09T01:41:39.842Z,95953.41
2023-05-09T01:46:42.218Z,95949.88
2023-05-09T01:51:44.544Z,95951.75
2023-05-09T01:56:46.870Z,95948.50
2023-05-09T02:01:49.296Z,95945.50
2023-05-09T02:06:51.730Z,95945.28
2023-05-09T02:11:54.059Z,95939.78
2023-05-09T02:16:56.457Z,95926.38
2023-05-09T02:21:58.808Z,95931.69
2023-05-09T02:27:01.644Z,95919.88
2023-05-09T02:32:04.107Z,95920.41
2023-05-09T02:37:06.475Z,95917.72
2023-05-09T02:42:08.995Z,95923.13
2023-05-09T02:47:11.553Z,95921.44
2023-05-09T02:52:13.949Z,95919.50
2023-05-09T02:57:16.295Z,95906.66
2023-05-09T03:02:18.555Z,95906.38
2023-05-09T03:07:20.909Z,95909.06
2023-05-09T03:12:23.229Z,95904.69
2023-05-09T03:17:25.704Z,95915.06
2023-05-09T03:22:28.433Z,95917.59
2023-05-09T03:27:30.832Z,95913.63
2023-05-09T03:32:33.195Z,95900.44
2023-05-09T03:37:35.558Z,95908.13
2023-05-09T03:42:37.848Z,95903.28
2023-05-09T03:47:40.254Z,95911.28
2023-05-09T03:52:42.601Z,95912.34
2023-05-09T03:57:44.915Z,95903.09
2023-05-09T04:02:47.313Z,95905.03
2023-05-09T04:07:49.677Z,95913.06
2023-05-09T04:12:52.700Z,95911.03
2023-05-09T04:17:55.294Z,95905.84
2023-05-09T04:22:58.961Z,95911.81
2023-05-09T04:28:03.652Z,95907.78
2023-05-09T04:33:06.300Z,95909.06
2023-05-09T04:38:08.705Z,95894.38
2023-05-09T04:43:11.418Z,95892.53
2023-05-09T04:48:14.202Z,95882.88
2023-05-09T04:53:16.798Z,95874.81
2023-05-09T04:58:19.329Z,95879.13
2023-05-09T05:03:22.184Z,95881.81
2023-05-09T05:08:24.793Z,95875.94
2023-05-09T05:13:27.424Z,95862.50
2023-05-09T05:18:30.319Z,95867.84
2023-05-09T05:23:32.864Z,95860.00
2023-05-09T05:28:35.660Z,95859.13
2023-05-09T05:33:38.380Z,95862.03
2023-05-09T05:38:41.034Z,95860.66
2023-05-09T05:43:43.930Z,95862.28
2023-05-09T05:48:46.267Z,95861.75
2023-05-09T05:53:48.630Z,95865.44
2023-05-09T05:58:50.910Z,95861.28
2023-05-09T06:03:54.945Z,95846.56
2023-05-09T06:08:57.417Z,95843.38
2023-05-09T06:14:00.203Z,95830.56
2023-05-09T06:19:02.585Z,95830.34
2023-05-09T06:24:11.799Z,95830.53
2023-05-09T06:29:19.463Z,95829.13
2023-05-09T06:34:22.264Z,95819.97
2023-05-09T06:39:25.112Z,95825.50
2023-05-09T06:44:28.395Z,95819.34
2023-05-09T06:49:31.288Z,95808.25
2023-05-09T06:54:33.864Z,95800.72
2023-05-09T06:59:37.005Z,95798.00
2023-05-09T07:04:39.704Z,95798.19
2023-05-09T07:09:42.019Z,95784.81
2023-05-09T07:14:44.635Z,95787.31
2023-05-09T07:19:46.947Z,95800.09
2023-05-09T07:24:49.353Z,95786.69
2023-05-09T07:29:52.562Z,95777.16
2023-05-09T07:34:56.778Z,95764.78
2023-05-09T07:39:59.128Z,95760.84
2023-05-09T07:45:01.445Z,95754.72
2023-05-09T07:50:04.073Z,95756.69
2023-05-09T07:55:08.749Z,95750.66
2023-05-09T08:00:11.180Z,95750.28
2023-05-09T08:05:13.945Z,95741.00
2023-05-09T08:10:16.555Z,95729.00
2023-05-09T08:15:18.960Z,95727.50
2023-05-09T08:20:21.694Z,95726.03
2023-05-09T08:25:24.420Z,95717.69
2023-05-09T08:30:27.409Z,95720.06
2023-05-09T08:35:29.976Z,95706.31
2023-05-09T08:40:33.321Z,95703.59
2023-05-09T08:45:35.965Z,95698.19
2023-05-09T08:50:38.702Z,95696.44
2023-05-09T08:55:41.427Z,95681.00
2023-05-09T09:00:44.117Z,95678.13
2023-05-09T09:05:46.881Z,95666.75
2023-05-09T09:10:50.040Z,95660.34
2023-05-09T09:15:52.698Z,95649.50
2023-05-09T09:20:55.081Z,95645.78
2023-05-09T09:25:59.635Z,95654.13
2023-05-09T09:31:02.631Z,95641.16
2023-05-09T09:36:05.312Z,95628.22
2023-05-09T09:41:07.760Z,95626.81
2023-05-09T09:46:10.909Z,95606.03
2023-05-09T09:51:13.736Z,95609.34
2023-05-09T09:56:16.448Z,95599.59
2023-05-09T10:01:19.371Z,95590.78
2023-05-09T10:06:21.724Z,95589.72
2023-05-09T10:11:24.877Z,95579.16
2023-05-09T10:16:40.111Z,95573.38
2023-05-09T10:21:46.398Z,95560.28
2023-05-09T10:26:49.158Z,95545.16
2023-05-09T10:31:51.547Z,95546.69
2023-05-09T10:36:53.887Z,95541.94
2023-05-09T10:41:56.248Z,95535.38
2023-05-09T10:46:58.667Z,95524.38
2023-05-09T10:52:01.912Z,95508.84
2023-05-09T10:57:05.549Z,95511.03
2023-05-09T11:02:08.273Z,95504.19
2023-05-09T11:07:11.763Z,95491.34
2023-05-09T11:12:14.598Z,95482.00
2023-05-09T11:17:17.326Z,95471.88
2023-05-09T11:22:19.638Z,95457.03
2023-05-09T11:27:22.614Z,95445.69
2023-05-09T11:32:24.971Z,95443.13
2023-05-09T11:37:27.544Z,95437.47
2023-05-09T11:42:30.545Z,95439.00
2023-05-09T11:47:33.387Z,95426.44
2023-05-09T11:52:36.684Z,95422.66
2023-05-09T11:57:38.992Z,95413.97
2023-05-09T12:02:41.796Z,95404.84
2023-05-09T12:07:45.005Z,95407.06
2023-05-09T12:12:47.682Z,95388.72
2023-05-09T12:17:51.936Z,95387.53
2023-05-09T12:22:54.859Z,95369.97
2023-05-09T12:27:57.238Z,95356.44
2023-05-09T12:33:00.098Z,95347.22
2023-05-09T12:38:02.842Z,95339.41
2023-05-09T12:43:05.466Z,95334.53
2023-05-09T12:48:09.481Z,95330.31
2023-05-09T12:53:12.167Z,95313.28
2023-05-09T12:58:14.827Z,95319.25
2023-05-09T13:03:17.485Z,95293.31
2023-05-09T13:08:20.101Z,95300.56
2023-05-09T13:13:23.328Z,95291.03
2023-05-09T13:18:26.252Z,95284.16
2023-05-09T13:23:28.949Z,95271.50
2023-05-09T13:28:31.903Z,95262.16
2023-05-09T13:33:34.293Z,95257.28
2023-05-09T13:38:40.379Z,95249.03
2023-05-09T13:43:43.081Z,95239.97
2023-05-09T13:48:46.008Z,95238.84
2023-05-09T13:53:48.695Z,95229.88
2023-05-09T13:58:51.025Z,95219.69
2023-05-09T14:03:54.078Z,95215.09
2023-05-09T14:08:56.651Z,95201.09
2023-05-09T14:13:59.022Z,95193.66
2023-05-09T14:19:01.475Z,95181.84
2023-05-09T14:24:03.881Z,95196.44
2023-05-09T14:29:06.201Z,95192.91
2023-05-09T14:34:09.317Z,95185.69
2023-05-09T14:39:11.835Z,95180.47
2023-05-09T14:44:14.133Z,95168.31
2023-05-09T14:49:16.450Z,95150.44
2023-05-09T14:54:18.750Z,95153.03
2023-05-09T14:59:21.048Z,95148.69
2023-05-09T15:04:25.518Z,95134.94
2023-05-09T15:09:28.000Z,95128.59
2023-05-09T15:14:30.306Z,95129.84
2023-05-09T15:19:33.962Z,95123.25
2023-05-09T15:24:36.234Z,95125.50
2023-05-09T15:29:38.682Z,95120.09
2023-05-09T15:34:41.160Z,95108.38
2023-05-09T15:39:45.607Z,95100.78
2023-05-09T15:44:48.256Z,95088.22
2023-05-09T15:49:50.620Z,95098.44
2023-05-09T15:54:53.460Z,95091.94
2023-05-09T15:59:56.045Z,95095.91
2023-05-09T16:04:58.465Z,95076.47
2023-05-09T16:10:00.839Z,95077.56
2023-05-09T16:15:06.428Z,95055.88
2023-05-09T16:20:08.850Z,95055.47
2023-05-09T16:25:11.237Z,95059.63
2023-05-09T16:30:13.796Z,95054.38
2023-05-09T16:35:16.383Z,95049.44
2023-05-09T16:40:18.770Z,95032.69
2023-05-09T16:45:21.244Z,95022.78
2023-05-09T16:50:23.599Z,95009.34
2023-05-09T16:55:26.171Z,95013.31
2023-05-09T17:00:28.534Z,95007.19
2023-05-09T17:05:30.978Z,95004.25
2023-05-09T17:10:35.245Z,94993.72
2023-05-09T17:15:39.441Z,94992.81
2023-05-09T17:20:41.874Z,94998.47
2023-05-09T17:25:44.198Z,94997.84
2023-05-09T17:30:46.620Z,94997.28
2023-05-09T17:35:49.577Z,94982.19
2023-05-09T17:40:52.055Z,94977.69
2023-05-09T17:45:54.474Z,94972.34
2023-05-09T17:50:58.128Z,94964.50
2023-05-09T17:56:00.580Z,94970.16
2023-05-09T18:01:03.430Z,94964.91
2023-05-09T18:06:06.905Z,94960.78
2023-05-09T18:11:09.496Z,94958.53
2023-05-09T18:16:12.048Z,94949.88
2023-05-09T18:21:14.485Z,94947.56
2023-05-09T18:26:16.923Z,94947.66
2023-05-09T18:31:19.235Z,94940.38
2023-05-09T18:36:21.937Z,94927.50
2023-05-09T18:41:25.732Z,94930.97
2023-05-09T18:46:30.396Z,94929.00
2023-05-09T18:51:34.421Z,94931.91
2023-05-09T18:56:39.630Z,94936.13
2023-05-09T19:01:43.870Z,94934.88
2023-05-09T19:06:46.626Z,94934.91
2023-05-09T19:11:49.196Z,94936.22
2023-05-09T19:16:51.825Z,94937.25
2023-05-09T19:21:54.158Z,94930.25
2023-05-09T19:26:56.503Z,94934.94
2023-05-09T19:31:58.904Z,94948.22
2023-05-09T19:37:01.297Z,94948.41
2023-05-09T19:42:03.662Z,94950.81
2023-05-09T19:47:08.857Z,94942.69
2023-05-09T19:52:11.736Z,94942.41
2023-05-09T19:57:14.112Z,94941.47
2023-05-09T20:02:16.824Z,94945.94
2023-05-09T20:07:19.174Z,94951.56
2023-05-09T20:12:21.525Z,94943.09
2023-05-09T20:17:24.295Z,94947.91
2023-05-09T20:22:26.738Z,94948.06
2023-05-09T20:27:29.175Z,94951.25
2023-05-09T20:32:31.993Z,94959.84
2023-05-09T20:37:34.643Z,94960.97
2023-05-09T20:42:37.304Z,94962.72
2023-05-09T20:47:39.878Z,94977.22
2023-05-09T20:52:42.466Z,95044.88
2023-05-09T20:57:45.062Z,95046.31
2023-05-09T21:02:48.122Z,95042.94
2023-05-09T21:07:50.730Z,95043.59
2023-05-09T21:12:53.070Z,95044.69
2023-05-09T21:17:55.488Z,95061.75
2023-05-09T21:22:57.839Z,95078.97
2023-05-09T21:28:00.237Z,95088.53
2023-05-09T21:33:04.258Z,95117.75
2023-05-09T21:38:07.141Z,95126.00
2023-05-09T21:43:09.865Z,95124.41
2023-05-09T21:48:12.322Z,95132.91
2023-05-09T21:53:15.131Z,95142.97
2023-05-09T21:58:17.885Z,95146.81
2023-05-09T22:03:20.245Z,95156.66
2023-05-09T22:08:22.695Z,95158.88
2023-05-09T22:13:26.798Z,95156.88
2023-05-09T22:18:29.140Z,95154.00
2023-05-09T22:23:31.657Z,95157.41
2023-05-09T22:28:33.960Z,95152.41
2023-05-09T22:33:36.365Z,95153.78
2023-05-09T22:38:38.619Z,95148.91
2023-05-09T22:43:41.520Z,95149.50
2023-05-09T22:48:43.969Z,95142.03
2023-05-09T22:53:46.317Z,95147.91
2023-05-09T22:58:48.585Z,95154.28
2023-05-09T23:03:51.157Z,95149.72
2023-05-09T23:08:53.449Z,95141.50
2023-05-09T23:13:55.756Z,95142.91
2023-05-09T23:18:58.078Z,95140.81
2023-05-09T23:24:00.392Z,95139.03
2023-05-09T23:29:02.727Z,95139.72
2023-05-09T23:34:05.096Z,95132.72
2023-05-09T23:39:07.374Z,95132.13
2023-05-09T23:44:09.719Z,95131.94
2023-05-09T23:49:13.211Z,95132.44
2023-05-09T23:54:16.429Z,95131.66
2023-05-09T23:59:18.775Z,95126.53
